sensor_id;sensor_type;location;lat;lon;timestamp;temperature;humidity
18207;DHT22;9229;52.354;20.886;2024-02-16T00:00:08;8.40;99.90
18207;DHT22;9229;52.354;20.886;2024-02-16T00:05:20;8.40;99.90
18207;DHT22;9229;52.354;20.886;2024-02-16T00:10:23;8.40;99.90
18207;DHT22;9229;52.354;20.886;2024-02-16T00:15:25;8.50;99.90
18207;DHT22;9229;52.354;20.886;2024-02-16T00:20:29;8.50;99.90
18207;DHT22;9229;52.354;20.886;2024-02-16T00:25:32;8.40;99.90
18207;DHT22;9229;52.354;20.886;2024-02-16T00:30:35;8.50;99.90
18207;DHT22;9229;52.354;20.886;2024-02-16T00:35:38;8.40;99.90
18207;DHT22;9229;52.354;20.886;2024-02-16T00:40:41;8.30;99.90
18207;DHT22;9229;52.354;20.886;2024-02-16T00:45:44;8.30;99.90
18207;DHT22;9229;52.354;20.886;2024-02-16T00:50:51;8.20;99.90
18207;DHT22;9229;52.354;20.886;2024-02-16T00:55:53;8.10;99.90
18207;DHT22;9229;52.354;20.886;2024-02-16T01:00:56;8.10;99.90
18207;DHT22;9229;52.354;20.886;2024-02-16T01:06:00;8.00;99.90
18207;DHT22;9229;52.354;20.886;2024-02-16T01:11:03;7.90;99.90
18207;DHT22;9229;52.354;20.886;2024-02-16T01:16:06;7.80;99.90
18207;DHT22;9229;52.354;20.886;2024-02-16T01:21:12;7.80;99.90
18207;DHT22;9229;52.354;20.886;2024-02-16T01:26:14;7.70;99.90
18207;DHT22;9229;52.354;20.886;2024-02-16T01:31:18;7.70;99.90
18207;DHT22;9229;52.354;20.886;2024-02-16T01:36:28;7.60;99.90
18207;DHT22;9229;52.354;20.886;2024-02-16T01:41:32;7.50;99.90
18207;DHT22;9229;52.354;20.886;2024-02-16T01:46:34;7.50;99.90
18207;DHT22;9229;52.354;20.886;2024-02-16T01:51:38;7.50;99.90
18207;DHT22;9229;52.354;20.886;2024-02-16T01:56:40;7.50;99.90
18207;DHT22;9229;52.354;20.886;2024-02-16T02:01:44;7.40;99.90
18207;DHT22;9229;52.354;20.886;2024-02-16T02:06:47;7.40;99.90
18207;DHT22;9229;52.354;20.886;2024-02-16T02:11:49;7.40;99.90
18207;DHT22;9229;52.354;20.886;2024-02-16T02:16:52;7.30;99.90
18207;DHT22;9229;52.354;20.886;2024-02-16T02:21:56;7.30;99.90
18207;DHT22;9229;52.354;20.886;2024-02-16T02:27:00;7.10;99.90
18207;DHT22;9229;52.354;20.886;2024-02-16T02:32:04;7.10;99.90
18207;DHT22;9229;52.354;20.886;2024-02-16T02:37:09;7.00;99.90
18207;DHT22;9229;52.354;20.886;2024-02-16T02:42:13;7.00;99.90
18207;DHT22;9229;52.354;20.886;2024-02-16T02:47:15;7.10;99.90
18207;DHT22;9229;52.354;20.886;2024-02-16T02:52:17;7.00;99.90
18207;DHT22;9229;52.354;20.886;2024-02-16T02:57:20;6.90;99.90
18207;DHT22;9229;52.354;20.886;2024-02-16T03:02:24;6.90;99.90
18207;DHT22;9229;52.354;20.886;2024-02-16T03:07:27;6.80;99.90
18207;DHT22;9229;52.354;20.886;2024-02-16T03:12:31;6.80;99.90
18207;DHT22;9229;52.354;20.886;2024-02-16T03:17:34;6.70;99.90
18207;DHT22;9229;52.354;20.886;2024-02-16T03:22:36;6.60;99.90
18207;DHT22;9229;52.354;20.886;2024-02-16T03:27:40;6.60;99.90
18207;DHT22;9229;52.354;20.886;2024-02-16T03:32:42;6.60;99.90
18207;DHT22;9229;52.354;20.886;2024-02-16T03:37:44;6.50;99.90
18207;DHT22;9229;52.354;20.886;2024-02-16T03:42:48;6.40;99.90
18207;DHT22;9229;52.354;20.886;2024-02-16T03:47:51;6.40;99.90
18207;DHT22;9229;52.354;20.886;2024-02-16T03:52:53;6.40;99.90
18207;DHT22;9229;52.354;20.886;2024-02-16T03:57:57;6.30;99.90
18207;DHT22;9229;52.354;20.886;2024-02-16T04:03:01;6.30;99.90
18207;DHT22;9229;52.354;20.886;2024-02-16T04:08:04;6.10;99.90
18207;DHT22;9229;52.354;20.886;2024-02-16T04:13:09;6.10;99.90
18207;DHT22;9229;52.354;20.886;2024-02-16T04:18:11;6.10;99.90
18207;DHT22;9229;52.354;20.886;2024-02-16T04:23:13;6.00;99.90
18207;DHT22;9229;52.354;20.886;2024-02-16T04:28:16;5.80;99.90
18207;DHT22;9229;52.354;20.886;2024-02-16T04:33:19;5.80;99.90
18207;DHT22;9229;52.354;20.886;2024-02-16T04:38:21;5.80;99.90
18207;DHT22;9229;52.354;20.886;2024-02-16T04:43:24;5.80;99.90
18207;DHT22;9229;52.354;20.886;2024-02-16T04:48:27;5.70;99.90
18207;DHT22;9229;52.354;20.886;2024-02-16T04:53:30;5.60;99.90
18207;DHT22;9229;52.354;20.886;2024-02-16T04:58:34;5.50;99.90
18207;DHT22;9229;52.354;20.886;2024-02-16T05:03:37;5.40;99.90
18207;DHT22;9229;52.354;20.886;2024-02-16T05:08:42;5.40;99.90
18207;DHT22;9229;52.354;20.886;2024-02-16T05:13:45;5.30;99.90
18207;DHT22;9229;52.354;20.886;2024-02-16T05:18:47;5.20;99.90
18207;DHT22;9229;52.354;20.886;2024-02-16T05:23:49;5.20;99.90
18207;DHT22;9229;52.354;20.886;2024-02-16T05:28:52;5.10;99.90
18207;DHT22;9229;52.354;20.886;2024-02-16T05:33:56;5.10;99.90
18207;DHT22;9229;52.354;20.886;2024-02-16T05:38:58;5.00;99.90
18207;DHT22;9229;52.354;20.886;2024-02-16T05:44:13;5.10;99.90
18207;DHT22;9229;52.354;20.886;2024-02-16T05:49:15;4.90;99.90
18207;DHT22;9229;52.354;20.886;2024-02-16T05:54:17;4.90;99.90
18207;DHT22;9229;52.354;20.886;2024-02-16T05:59:21;4.80;99.90
18207;DHT22;9229;52.354;20.886;2024-02-16T06:04:25;4.70;99.90
18207;DHT22;9229;52.354;20.886;2024-02-16T06:09:27;4.70;99.90
18207;DHT22;9229;52.354;20.886;2024-02-16T06:14:35;4.70;99.90
18207;DHT22;9229;52.354;20.886;2024-02-16T06:19:38;4.90;99.90
18207;DHT22;9229;52.354;20.886;2024-02-16T06:24:41;4.80;99.90
18207;DHT22;9229;52.354;20.886;2024-02-16T06:29:44;4.80;99.90
18207;DHT22;9229;52.354;20.886;2024-02-16T06:34:47;4.80;99.90
18207;DHT22;9229;52.354;20.886;2024-02-16T06:39:49;4.80;99.90
18207;DHT22;9229;52.354;20.886;2024-02-16T06:44:53;4.90;99.90
18207;DHT22;9229;52.354;20.886;2024-02-16T06:49:55;4.80;99.90
18207;DHT22;9229;52.354;20.886;2024-02-16T06:54:57;4.90;99.90
18207;DHT22;9229;52.354;20.886;2024-02-16T07:00:01;5.10;99.90
18207;DHT22;9229;52.354;20.886;2024-02-16T07:05:04;5.20;99.90
18207;DHT22;9229;52.354;20.886;2024-02-16T07:10:07;5.30;99.90
18207;DHT22;9229;52.354;20.886;2024-02-16T07:15:15;5.50;99.90
18207;DHT22;9229;52.354;20.886;2024-02-16T07:20:17;5.60;99.90
18207;DHT22;9229;52.354;20.886;2024-02-16T07:25:19;5.80;99.90
18207;DHT22;9229;52.354;20.886;2024-02-16T07:30:23;6.00;99.90
18207;DHT22;9229;52.354;20.886;2024-02-16T07:35:25;6.20;99.90
18207;DHT22;9229;52.354;20.886;2024-02-16T07:40:27;6.50;99.90
18207;DHT22;9229;52.354;20.886;2024-02-16T07:45:31;6.70;99.90
18207;DHT22;9229;52.354;20.886;2024-02-16T07:50:35;6.90;99.90
18207;DHT22;9229;52.354;20.886;2024-02-16T07:55:37;7.10;99.90
18207;DHT22;9229;52.354;20.886;2024-02-16T08:00:43;7.30;99.90
18207;DHT22;9229;52.354;20.886;2024-02-16T08:05:45;7.30;99.90
18207;DHT22;9229;52.354;20.886;2024-02-16T08:10:47;7.60;99.90
18207;DHT22;9229;52.354;20.886;2024-02-16T08:15:50;7.80;99.90
18207;DHT22;9229;52.354;20.886;2024-02-16T08:20:53;8.00;99.90
18207;DHT22;9229;52.354;20.886;2024-02-16T08:25:55;8.20;99.90
18207;DHT22;9229;52.354;20.886;2024-02-16T08:30:59;8.30;99.90
18207;DHT22;9229;52.354;20.886;2024-02-16T08:36:01;8.60;99.90
18207;DHT22;9229;52.354;20.886;2024-02-16T08:41:06;8.90;99.90
18207;DHT22;9229;52.354;20.886;2024-02-16T08:46:10;9.30;99.90
18207;DHT22;9229;52.354;20.886;2024-02-16T09:39:57;13.60;99.40
18207;DHT22;9229;52.354;20.886;2024-02-16T09:45:20;13.70;97.90
18207;DHT22;9229;52.354;20.886;2024-02-16T09:56:56;14.00;96.40
18207;DHT22;9229;52.354;20.886;2024-02-16T10:09:22;14.00;94.70
18207;DHT22;9229;52.354;20.886;2024-02-16T10:21:42;14.00;94.40
18207;DHT22;9229;52.354;20.886;2024-02-16T10:27:39;14.40;94.30
18207;DHT22;9229;52.354;20.886;2024-02-16T10:33:17;14.60;93.10
18207;DHT22;9229;52.354;20.886;2024-02-16T10:39:04;14.60;93.40
18207;DHT22;9229;52.354;20.886;2024-02-16T10:44:11;14.90;92.70
18207;DHT22;9229;52.354;20.886;2024-02-16T10:49:39;15.00;92.40
18207;DHT22;9229;52.354;20.886;2024-02-16T10:55:21;14.80;92.20
18207;DHT22;9229;52.354;20.886;2024-02-16T11:07:27;14.90;92.10
18207;DHT22;9229;52.354;20.886;2024-02-16T11:32:54;14.70;92.40
18207;DHT22;9229;52.354;20.886;2024-02-16T11:38:30;14.70;92.20
18207;DHT22;9229;52.354;20.886;2024-02-16T11:45:21;14.70;92.60
18207;DHT22;9229;52.354;20.886;2024-02-16T11:50:06;14.60;92.60
18207;DHT22;9229;52.354;20.886;2024-02-16T12:15:19;14.90;92.70
18207;DHT22;9229;52.354;20.886;2024-02-16T12:20:37;14.90;93.10
18207;DHT22;9229;52.354;20.886;2024-02-16T12:31:33;14.80;93.10
18207;DHT22;9229;52.354;20.886;2024-02-16T12:37:09;14.70;93.30
18207;DHT22;9229;52.354;20.886;2024-02-16T12:42:14;14.80;93.60
18207;DHT22;9229;52.354;20.886;2024-02-16T12:47:29;14.90;93.60
18207;DHT22;9229;52.354;20.886;2024-02-16T12:52:31;14.80;93.60
18207;DHT22;9229;52.354;20.886;2024-02-16T12:57:39;14.90;93.80
18207;DHT22;9229;52.354;20.886;2024-02-16T13:02:43;15.10;94.20
18207;DHT22;9229;52.354;20.886;2024-02-16T13:07:45;15.20;93.70
18207;DHT22;9229;52.354;20.886;2024-02-16T13:12:48;15.30;93.70
18207;DHT22;9229;52.354;20.886;2024-02-16T13:17:51;15.40;93.70
18207;DHT22;9229;52.354;20.886;2024-02-16T13:22:53;15.50;92.90
18207;DHT22;9229;52.354;20.886;2024-02-16T13:27:57;15.50;93.10
18207;DHT22;9229;52.354;20.886;2024-02-16T13:33:01;15.60;93.10
18207;DHT22;9229;52.354;20.886;2024-02-16T13:38:05;15.60;92.70
18207;DHT22;9229;52.354;20.886;2024-02-16T13:43:07;15.50;92.80
18207;DHT22;9229;52.354;20.886;2024-02-16T13:48:13;15.20;92.90
18207;DHT22;9229;52.354;20.886;2024-02-16T13:53:15;14.80;93.20
18207;DHT22;9229;52.354;20.886;2024-02-16T13:58:20;14.40;93.90
18207;DHT22;9229;52.354;20.886;2024-02-16T14:03:24;14.10;94.30
18207;DHT22;9229;52.354;20.886;2024-02-16T14:08:26;13.90;94.70
18207;DHT22;9229;52.354;20.886;2024-02-16T14:13:29;13.60;95.00
18207;DHT22;9229;52.354;20.886;2024-02-16T14:18:33;13.50;95.40
18207;DHT22;9229;52.354;20.886;2024-02-16T14:23:38;13.40;95.60
18207;DHT22;9229;52.354;20.886;2024-02-16T14:28:41;13.30;95.90
18207;DHT22;9229;52.354;20.886;2024-02-16T14:33:44;13.20;96.10
18207;DHT22;9229;52.354;20.886;2024-02-16T14:38:46;13.20;96.30
18207;DHT22;9229;52.354;20.886;2024-02-16T14:43:48;13.20;96.70
18207;DHT22;9229;52.354;20.886;2024-02-16T14:48:52;13.20;96.60
18207;DHT22;9229;52.354;20.886;2024-02-16T14:53:54;13.20;96.70
18207;DHT22;9229;52.354;20.886;2024-02-16T14:58:56;13.10;96.70
18207;DHT22;9229;52.354;20.886;2024-02-16T15:03:59;13.00;96.50
18207;DHT22;9229;52.354;20.886;2024-02-16T15:09:02;13.00;96.70
18207;DHT22;9229;52.354;20.886;2024-02-16T15:14:05;12.90;96.60
18207;DHT22;9229;52.354;20.886;2024-02-16T15:19:16;12.70;96.70
18207;DHT22;9229;52.354;20.886;2024-02-16T15:24:18;12.60;97.00
18207;DHT22;9229;52.354;20.886;2024-02-16T15:29:22;12.50;97.20
18207;DHT22;9229;52.354;20.886;2024-02-16T15:34:31;12.30;97.30
18207;DHT22;9229;52.354;20.886;2024-02-16T15:39:35;12.20;97.40
18207;DHT22;9229;52.354;20.886;2024-02-16T15:44:37;12.00;97.50
18207;DHT22;9229;52.354;20.886;2024-02-16T15:49:40;11.90;97.70
18207;DHT22;9229;52.354;20.886;2024-02-16T15:54:42;11.80;97.80
18207;DHT22;9229;52.354;20.886;2024-02-16T15:59:45;11.70;97.80
18207;DHT22;9229;52.354;20.886;2024-02-16T16:04:50;11.60;97.90
18207;DHT22;9229;52.354;20.886;2024-02-16T16:09:54;11.40;98.00
18207;DHT22;9229;52.354;20.886;2024-02-16T16:15:00;11.30;98.20
18207;DHT22;9229;52.354;20.886;2024-02-16T16:20:14;11.20;98.30
18207;DHT22;9229;52.354;20.886;2024-02-16T16:25:22;11.10;98.40
18207;DHT22;9229;52.354;20.886;2024-02-16T16:30:30;11.00;98.40
18207;DHT22;9229;52.354;20.886;2024-02-16T17:02:06;10.60;99.40
18207;DHT22;9229;52.354;20.886;2024-02-16T17:08:41;10.50;99.60
18207;DHT22;9229;52.354;20.886;2024-02-16T17:14:41;10.50;99.90
18207;DHT22;9229;52.354;20.886;2024-02-16T17:40:13;10.30;99.90
18207;DHT22;9229;52.354;20.886;2024-02-16T17:45:17;10.30;99.90
18207;DHT22;9229;52.354;20.886;2024-02-16T17:50:19;10.30;99.90
18207;DHT22;9229;52.354;20.886;2024-02-16T17:55:25;10.20;99.90
18207;DHT22;9229;52.354;20.886;2024-02-16T18:00:27;10.20;99.90
18207;DHT22;9229;52.354;20.886;2024-02-16T18:05:29;10.20;99.90
18207;DHT22;9229;52.354;20.886;2024-02-16T18:10:32;10.20;99.90
18207;DHT22;9229;52.354;20.886;2024-02-16T18:15:36;10.20;99.90
18207;DHT22;9229;52.354;20.886;2024-02-16T18:20:37;10.10;99.90
18207;DHT22;9229;52.354;20.886;2024-02-16T18:25:42;9.90;99.90
18207;DHT22;9229;52.354;20.886;2024-02-16T18:30:44;10.10;99.90
18207;DHT22;9229;52.354;20.886;2024-02-16T18:35:46;9.90;99.90
18207;DHT22;9229;52.354;20.886;2024-02-16T18:40:50;9.80;99.90
18207;DHT22;9229;52.354;20.886;2024-02-16T18:45:52;9.80;99.90
18207;DHT22;9229;52.354;20.886;2024-02-16T18:50:54;9.70;99.90
18207;DHT22;9229;52.354;20.886;2024-02-16T18:55:58;9.70;99.90
18207;DHT22;9229;52.354;20.886;2024-02-16T19:01:01;9.60;99.90
18207;DHT22;9229;52.354;20.886;2024-02-16T19:06:03;9.60;99.90
18207;DHT22;9229;52.354;20.886;2024-02-16T19:11:07;9.50;99.90
18207;DHT22;9229;52.354;20.886;2024-02-16T19:16:09;9.50;99.90
18207;DHT22;9229;52.354;20.886;2024-02-16T19:21:11;9.50;99.90
18207;DHT22;9229;52.354;20.886;2024-02-16T19:26:17;9.50;99.90
18207;DHT22;9229;52.354;20.886;2024-02-16T19:31:19;9.50;99.90
18207;DHT22;9229;52.354;20.886;2024-02-16T19:36:23;9.50;99.90
18207;DHT22;9229;52.354;20.886;2024-02-16T19:41:27;9.40;99.90
18207;DHT22;9229;52.354;20.886;2024-02-16T19:46:29;9.30;99.90
18207;DHT22;9229;52.354;20.886;2024-02-16T19:51:34;9.40;99.90
18207;DHT22;9229;52.354;20.886;2024-02-16T19:56:37;9.40;99.90
18207;DHT22;9229;52.354;20.886;2024-02-16T20:01:40;9.40;99.90
18207;DHT22;9229;52.354;20.886;2024-02-16T20:06:42;9.40;99.90
18207;DHT22;9229;52.354;20.886;2024-02-16T20:11:47;9.40;99.90
18207;DHT22;9229;52.354;20.886;2024-02-16T20:16:49;9.40;99.90
18207;DHT22;9229;52.354;20.886;2024-02-16T20:21:55;9.30;99.90
18207;DHT22;9229;52.354;20.886;2024-02-16T20:26:59;9.30;99.90
18207;DHT22;9229;52.354;20.886;2024-02-16T20:32:06;9.30;99.90
18207;DHT22;9229;52.354;20.886;2024-02-16T20:37:09;9.20;99.90
18207;DHT22;9229;52.354;20.886;2024-02-16T20:42:15;9.10;99.90
18207;DHT22;9229;52.354;20.886;2024-02-16T20:47:20;9.10;99.90
18207;DHT22;9229;52.354;20.886;2024-02-16T20:52:23;9.00;99.90
18207;DHT22;9229;52.354;20.886;2024-02-16T20:57:27;8.90;99.90
18207;DHT22;9229;52.354;20.886;2024-02-16T21:02:30;8.90;99.90
18207;DHT22;9229;52.354;20.886;2024-02-16T21:07:34;8.80;99.90
18207;DHT22;9229;52.354;20.886;2024-02-16T21:12:40;8.80;99.90
18207;DHT22;9229;52.354;20.886;2024-02-16T21:17:45;8.80;99.90
18207;DHT22;9229;52.354;20.886;2024-02-16T21:22:50;8.80;99.90
18207;DHT22;9229;52.354;20.886;2024-02-16T21:27:54;8.70;99.90
18207;DHT22;9229;52.354;20.886;2024-02-16T21:33:00;8.70;99.90
18207;DHT22;9229;52.354;20.886;2024-02-16T21:38:10;8.70;99.90
18207;DHT22;9229;52.354;20.886;2024-02-16T21:43:27;8.60;99.90
18207;DHT22;9229;52.354;20.886;2024-02-16T21:48:29;8.50;99.90
18207;DHT22;9229;52.354;20.886;2024-02-16T21:53:37;8.50;99.90
18207;DHT22;9229;52.354;20.886;2024-02-16T21:58:42;8.40;99.90
18207;DHT22;9229;52.354;20.886;2024-02-16T22:03:45;8.40;99.90
18207;DHT22;9229;52.354;20.886;2024-02-16T22:09:15;8.40;99.90
18207;DHT22;9229;52.354;20.886;2024-02-16T22:14:33;8.30;99.90
18207;DHT22;9229;52.354;20.886;2024-02-16T22:20:08;8.20;99.90
18207;DHT22;9229;52.354;20.886;2024-02-16T22:25:25;8.10;99.90
18207;DHT22;9229;52.354;20.886;2024-02-16T22:30:49;8.10;99.90
18207;DHT22;9229;52.354;20.886;2024-02-16T22:35:57;8.00;99.90
18207;DHT22;9229;52.354;20.886;2024-02-16T22:41:07;8.00;99.90
18207;DHT22;9229;52.354;20.886;2024-02-16T22:46:36;8.00;99.90
18207;DHT22;9229;52.354;20.886;2024-02-16T22:51:41;7.90;99.90
18207;DHT22;9229;52.354;20.886;2024-02-16T22:56:45;7.90;99.90
18207;DHT22;9229;52.354;20.886;2024-02-16T23:07:21;7.80;99.90
18207;DHT22;9229;52.354;20.886;2024-02-16T23:12:35;7.90;99.90
18207;DHT22;9229;52.354;20.886;2024-02-16T23:17:57;7.90;99.90
18207;DHT22;9229;52.354;20.886;2024-02-16T23:23:02;7.90;99.90
18207;DHT22;9229;52.354;20.886;2024-02-16T23:28:08;7.80;99.90
18207;DHT22;9229;52.354;20.886;2024-02-16T23:33:12;7.80;99.90
18207;DHT22;9229;52.354;20.886;2024-02-16T23:38:14;7.80;99.90
18207;DHT22;9229;52.354;20.886;2024-02-16T23:43:16;7.80;99.90
18207;DHT22;9229;52.354;20.886;2024-02-16T23:48:19;7.70;99.90
18207;DHT22;9229;52.354;20.886;2024-02-16T23:53:21;7.70;99.90
18207;DHT22;9229;52.354;20.886;2024-02-16T23:58:24;7.60;99.90
